sensor_id;sensor_type;location;lat;lon;timestamp;pressure;altitude;pressure_sealevel;temperature;humidity
26865;BME280;40618;51.166;10.322;2024-01-27T00:01:39;98823.75;;;2.76;84.51
26865;BME280;40618;51.166;10.322;2024-01-27T00:04:04;98819.44;;;2.74;84.54
26865;BME280;40618;51.166;10.322;2024-01-27T00:06:30;98805.72;;;2.71;84.97
26865;BME280;40618;51.166;10.322;2024-01-27T00:08:55;98811.63;;;2.69;84.94
26865;BME280;40618;51.166;10.322;2024-01-27T00:11:21;98816.75;;;2.69;84.48
26865;BME280;40618;51.166;10.322;2024-01-27T00:13:48;98820.19;;;2.69;84.95
26865;BME280;40618;51.166;10.322;2024-01-27T00:16:14;98825.22;;;2.66;84.70
26865;BME280;40618;51.166;10.322;2024-01-27T00:18:39;98824.31;;;2.64;84.29
26865;BME280;40618;51.166;10.322;2024-01-27T00:21:06;98830.25;;;2.63;84.56
26865;BME280;40618;51.166;10.322;2024-01-27T00:23:32;98836.19;;;2.62;83.94
26865;BME280;40618;51.166;10.322;2024-01-27T00:25:58;98842.16;;;2.61;84.24
26865;BME280;40618;51.166;10.322;2024-01-27T00:28:24;98843.84;;;2.61;84.29
26865;BME280;40618;51.166;10.322;2024-01-27T00:30:50;98846.53;;;2.65;84.89
26865;BME280;40618;51.166;10.322;2024-01-27T00:33:15;98847.38;;;2.66;84.40
26865;BME280;40618;51.166;10.322;2024-01-27T00:35:41;98849.94;;;2.66;84.54
26865;BME280;40618;51.166;10.322;2024-01-27T00:38:07;98859.38;;;2.68;84.86
26865;BME280;40618;51.166;10.322;2024-01-27T00:40:34;98863.63;;;2.68;84.20
26865;BME280;40618;51.166;10.322;2024-01-27T00:42:59;98861.09;;;2.68;84.27
26865;BME280;40618;51.166;10.322;2024-01-27T00:45:27;98866.13;;;2.66;84.01
26865;BME280;40618;51.166;10.322;2024-01-27T00:47:53;98872.09;;;2.65;84.57
26865;BME280;40618;51.166;10.322;2024-01-27T00:50:19;98867.00;;;2.65;83.88
26865;BME280;40618;51.166;10.322;2024-01-27T00:52:44;98878.91;;;2.66;84.72
26865;BME280;40618;51.166;10.322;2024-01-27T00:55:10;98876.44;;;2.68;84.40
26865;BME280;40618;51.166;10.322;2024-01-27T00:57:36;98875.53;;;2.67;84.00
26865;BME280;40618;51.166;10.322;2024-01-27T01:00:05;98876.28;;;2.63;83.65
26865;BME280;40618;51.166;10.322;2024-01-27T01:02:32;98874.53;;;2.61;83.64
26865;BME280;40618;51.166;10.322;2024-01-27T01:04:58;98879.59;;;2.59;84.40
26865;BME280;40618;51.166;10.322;2024-01-27T01:07:23;98871.94;;;2.59;83.95
26865;BME280;40618;51.166;10.322;2024-01-27T01:09:49;98883.78;;;2.56;84.01
26865;BME280;40618;51.166;10.322;2024-01-27T01:12:15;98885.47;;;2.55;83.99
26865;BME280;40618;51.166;10.322;2024-01-27T01:14:41;98876.91;;;2.53;84.17
26865;BME280;40618;51.166;10.322;2024-01-27T01:17:07;98887.97;;;2.52;83.73
26865;BME280;40618;51.166;10.322;2024-01-27T01:19:33;98884.59;;;2.53;83.94
26865;BME280;40618;51.166;10.322;2024-01-27T01:21:58;98895.69;;;2.55;83.73
26865;BME280;40618;51.166;10.322;2024-01-27T01:24:24;98890.59;;;2.55;84.26
26865;BME280;40618;51.166;10.322;2024-01-27T01:26:49;98897.38;;;2.53;84.10
26865;BME280;40618;51.166;10.322;2024-01-27T01:29:16;98899.03;;;2.52;83.71
26865;BME280;40618;51.166;10.322;2024-01-27T01:31:44;98904.13;;;2.51;84.43
26865;BME280;40618;51.166;10.322;2024-01-27T01:34:10;98899.84;;;2.51;83.92
26865;BME280;40618;51.166;10.322;2024-01-27T01:36:35;98904.16;;;2.52;84.41
26865;BME280;40618;51.166;10.322;2024-01-27T01:39:01;98909.31;;;2.54;84.05
26865;BME280;40618;51.166;10.322;2024-01-27T01:41:27;98900.78;;;2.53;83.91
26865;BME280;40618;51.166;10.322;2024-01-27T01:43:53;98899.94;;;2.53;84.31
26865;BME280;40618;51.166;10.322;2024-01-27T01:46:18;98904.13;;;2.51;83.56
26865;BME280;40618;51.166;10.322;2024-01-27T01:48:44;98907.50;;;2.50;83.88
26865;BME280;40618;51.166;10.322;2024-01-27T01:51:10;98909.25;;;2.51;84.21
26865;BME280;40618;51.166;10.322;2024-01-27T01:53:36;98910.97;;;2.52;84.47
26865;BME280;40618;51.166;10.322;2024-01-27T01:56:02;98928.06;;;2.53;83.56
26865;BME280;40618;51.166;10.322;2024-01-27T01:58:29;98913.50;;;2.50;84.63
26865;BME280;40618;51.166;10.322;2024-01-27T02:01:02;98910.91;;;2.49;83.53
26865;BME280;40618;51.166;10.322;2024-01-27T02:03:27;98917.72;;;2.50;84.06
26865;BME280;40618;51.166;10.322;2024-01-27T02:05:54;98916.88;;;2.49;84.37
26865;BME280;40618;51.166;10.322;2024-01-27T02:08:20;98916.84;;;2.48;83.74
26865;BME280;40618;51.166;10.322;2024-01-27T02:10:47;98917.56;;;2.42;84.25
26865;BME280;40618;51.166;10.322;2024-01-27T02:13:19;98921.78;;;2.42;83.70
26865;BME280;40618;51.166;10.322;2024-01-27T02:15:47;98926.88;;;2.42;83.88
26865;BME280;40618;51.166;10.322;2024-01-27T02:18:14;98920.09;;;2.42;84.45
26865;BME280;40618;51.166;10.322;2024-01-27T02:20:40;98930.22;;;2.39;83.68
26865;BME280;40618;51.166;10.322;2024-01-27T02:23:06;98933.72;;;2.41;84.41
26865;BME280;40618;51.166;10.322;2024-01-27T02:25:34;98938.84;;;2.43;84.08
26865;BME280;40618;51.166;10.322;2024-01-27T02:28:01;98935.50;;;2.45;84.28
26865;BME280;40618;51.166;10.322;2024-01-27T02:30:29;98937.22;;;2.45;84.03
26865;BME280;40618;51.166;10.322;2024-01-27T02:32:58;98937.16;;;2.43;83.85
26865;BME280;40618;51.166;10.322;2024-01-27T02:35:24;98936.22;;;2.40;84.10
26865;BME280;40618;51.166;10.322;2024-01-27T02:37:49;98935.31;;;2.37;84.57
26865;BME280;40618;51.166;10.322;2024-01-27T02:40:15;98933.53;;;2.35;84.60
26865;BME280;40618;51.166;10.322;2024-01-27T02:42:41;98932.63;;;2.33;83.60
26865;BME280;40618;51.166;10.322;2024-01-27T02:45:08;98929.22;;;2.32;84.18
26865;BME280;40618;51.166;10.322;2024-01-27T02:47:34;98927.59;;;2.36;84.08
26865;BME280;40618;51.166;10.322;2024-01-27T02:49:59;98926.78;;;2.37;84.20
26865;BME280;40618;51.166;10.322;2024-01-27T02:52:25;98928.41;;;2.35;84.68
26865;BME280;40618;51.166;10.322;2024-01-27T02:54:51;98942.91;;;2.34;83.85
26865;BME280;40618;51.166;10.322;2024-01-27T02:57:16;98930.94;;;2.33;84.55
26865;BME280;40618;51.166;10.322;2024-01-27T02:59:45;98930.81;;;2.29;83.84
26865;BME280;40618;51.166;10.322;2024-01-27T03:02:11;98933.34;;;2.27;84.50
26865;BME280;40618;51.166;10.322;2024-01-27T03:04:37;98927.34;;;2.27;83.64
26865;BME280;40618;51.166;10.322;2024-01-27T03:07:03;98923.00;;;2.24;84.45
26865;BME280;40618;51.166;10.322;2024-01-27T03:09:29;98927.28;;;2.24;84.47
26865;BME280;40618;51.166;10.322;2024-01-27T03:11:56;98931.53;;;2.23;84.18
26865;BME280;40618;51.166;10.322;2024-01-27T03:14:21;98927.25;;;2.22;83.77
26865;BME280;40618;51.166;10.322;2024-01-27T03:16:47;98927.19;;;2.20;83.83
26865;BME280;40618;51.166;10.322;2024-01-27T03:19:13;98930.53;;;2.18;84.49
26865;BME280;40618;51.166;10.322;2024-01-27T03:21:39;98933.06;;;2.16;84.14
26865;BME280;40618;51.166;10.322;2024-01-27T03:24:04;98932.16;;;2.16;83.92
26865;BME280;40618;51.166;10.322;2024-01-27T03:26:30;98938.88;;;2.11;83.95
26865;BME280;40618;51.166;10.322;2024-01-27T03:28:56;98939.59;;;2.07;83.78
26865;BME280;40618;51.166;10.322;2024-01-27T03:31:21;98932.75;;;2.06;84.59
26865;BME280;40618;51.166;10.322;2024-01-27T03:33:47;98939.50;;;2.03;84.25
26865;BME280;40618;51.166;10.322;2024-01-27T03:36:13;98937.63;;;1.98;83.70
26865;BME280;40618;51.166;10.322;2024-01-27T03:38:40;98937.59;;;1.96;84.07
26865;BME280;40618;51.166;10.322;2024-01-27T03:41:06;98936.72;;;1.94;84.39
26865;BME280;40618;51.166;10.322;2024-01-27T03:43:33;98942.63;;;1.93;84.21
26865;BME280;40618;51.166;10.322;2024-01-27T03:45:59;98951.16;;;1.94;83.77
26865;BME280;40618;51.166;10.322;2024-01-27T03:48:25;98952.88;;;1.95;84.62
26865;BME280;40618;51.166;10.322;2024-01-27T03:50:51;98956.28;;;1.95;83.92
26865;BME280;40618;51.166;10.322;2024-01-27T03:53:17;98961.34;;;1.92;84.18
26865;BME280;40618;51.166;10.322;2024-01-27T03:55:42;98963.81;;;1.89;84.31
26865;BME280;40618;51.166;10.322;2024-01-27T03:58:08;98967.09;;;1.85;84.57
26865;BME280;40618;51.166;10.322;2024-01-27T04:00:33;98972.97;;;1.82;83.77
26865;BME280;40618;51.166;10.322;2024-01-27T04:02:59;98974.69;;;1.82;84.11
26865;BME280;40618;51.166;10.322;2024-01-27T04:05:26;98980.59;;;1.81;84.60
26865;BME280;40618;51.166;10.322;2024-01-27T04:07:52;98975.53;;;1.82;84.44
26865;BME280;40618;51.166;10.322;2024-01-27T04:10:18;98979.81;;;1.83;84.04
26865;BME280;40618;51.166;10.322;2024-01-27T04:12:44;98982.34;;;1.82;84.05
26865;BME280;40618;51.166;10.322;2024-01-27T04:15:10;98993.28;;;1.78;84.37
26865;BME280;40618;51.166;10.322;2024-01-27T04:17:40;99000.09;;;1.79;84.26
26865;BME280;40618;51.166;10.322;2024-01-27T04:20:07;99000.03;;;1.76;84.45
26865;BME280;40618;51.166;10.322;2024-01-27T04:22:34;99008.50;;;1.75;84.08
26865;BME280;40618;51.166;10.322;2024-01-27T04:25:00;99008.41;;;1.72;83.90
26865;BME280;40618;51.166;10.322;2024-01-27T04:27:27;99016.13;;;1.73;84.54
26865;BME280;40618;51.166;10.322;2024-01-27T04:29:53;99018.63;;;1.72;83.98
26865;BME280;40618;51.166;10.322;2024-01-27T04:32:19;99025.47;;;1.73;84.42
26865;BME280;40618;51.166;10.322;2024-01-27T04:34:46;99020.31;;;1.71;84.11
26865;BME280;40618;51.166;10.322;2024-01-27T04:37:12;99018.50;;;1.67;84.53
26865;BME280;40618;51.166;10.322;2024-01-27T04:39:38;99018.50;;;1.67;84.72
26865;BME280;40618;51.166;10.322;2024-01-27T04:42:04;99032.25;;;1.72;84.91
26865;BME280;40618;51.166;10.322;2024-01-27T04:44:31;99034.88;;;1.74;84.67
26865;BME280;40618;51.166;10.322;2024-01-27T04:46:57;99034.97;;;1.77;84.67
26865;BME280;40618;51.166;10.322;2024-01-27T04:49:23;99034.16;;;1.78;85.03
26865;BME280;40618;51.166;10.322;2024-01-27T04:51:49;99034.06;;;1.76;84.35
26865;BME280;40618;51.166;10.322;2024-01-27T04:54:15;99039.19;;;1.76;84.95
26865;BME280;40618;51.166;10.322;2024-01-27T04:56:41;99043.47;;;1.77;84.26
26865;BME280;40618;51.166;10.322;2024-01-27T04:59:06;99042.66;;;1.78;84.39
26865;BME280;40618;51.166;10.322;2024-01-27T05:01:32;99046.91;;;1.78;84.90
26865;BME280;40618;51.166;10.322;2024-01-27T05:03:58;99052.13;;;1.81;84.93
26865;BME280;40618;51.166;10.322;2024-01-27T05:06:24;99047.81;;;1.80;84.68
26865;BME280;40618;51.166;10.322;2024-01-27T05:08:49;99046.03;;;1.77;84.29
26865;BME280;40618;51.166;10.322;2024-01-27T05:11:24;99047.78;;;1.78;84.30
26865;BME280;40618;51.166;10.322;2024-01-27T05:13:51;99058.00;;;1.78;84.83
26865;BME280;40618;51.166;10.322;2024-01-27T05:16:16;99065.59;;;1.77;84.48
26865;BME280;40618;51.166;10.322;2024-01-27T05:18:42;99056.28;;;1.79;84.12
26865;BME280;40618;51.166;10.322;2024-01-27T05:21:07;99054.66;;;1.81;84.46
26865;BME280;40618;51.166;10.322;2024-01-27T05:23:33;99051.19;;;1.79;84.55
26865;BME280;40618;51.166;10.322;2024-01-27T05:25:58;99056.22;;;1.76;84.79
26865;BME280;40618;51.166;10.322;2024-01-27T05:28:24;99058.75;;;1.76;85.05
26865;BME280;40618;51.166;10.322;2024-01-27T05:30:50;99060.50;;;1.77;84.87
26865;BME280;40618;51.166;10.322;2024-01-27T05:33:15;99067.22;;;1.75;84.95
26865;BME280;40618;51.166;10.322;2024-01-27T05:35:41;99068.97;;;1.76;84.37
26865;BME280;40618;51.166;10.322;2024-01-27T05:38:07;99057.13;;;1.78;84.46
26865;BME280;40618;51.166;10.322;2024-01-27T05:40:33;99065.59;;;1.77;85.13
26865;BME280;40618;51.166;10.322;2024-01-27T05:42:59;99069.91;;;1.78;84.58
26865;BME280;40618;51.166;10.322;2024-01-27T05:45:24;99065.59;;;1.77;84.24
26865;BME280;40618;51.166;10.322;2024-01-27T05:47:51;99069.78;;;1.75;84.93
26865;BME280;40618;51.166;10.322;2024-01-27T05:50:17;99070.50;;;1.71;84.49
26865;BME280;40618;51.166;10.322;2024-01-27T05:52:43;99077.22;;;1.67;84.27
26865;BME280;40618;51.166;10.322;2024-01-27T05:55:08;99070.44;;;1.67;84.63
26865;BME280;40618;51.166;10.322;2024-01-27T05:57:35;99075.50;;;1.66;84.49
26865;BME280;40618;51.166;10.322;2024-01-27T06:00:01;99080.59;;;1.66;84.91
26865;BME280;40618;51.166;10.322;2024-01-27T06:02:26;99085.53;;;1.61;84.79
26865;BME280;40618;51.166;10.322;2024-01-27T06:04:52;99083.63;;;1.54;84.60
26865;BME280;40618;51.166;10.322;2024-01-27T06:07:18;99084.38;;;1.51;84.86
26865;BME280;40618;51.166;10.322;2024-01-27T06:09:43;99089.44;;;1.50;84.60
26865;BME280;40618;51.166;10.322;2024-01-27T06:12:09;99085.09;;;1.47;84.30
26865;BME280;40618;51.166;10.322;2024-01-27T06:14:34;99085.94;;;1.46;84.21
26865;BME280;40618;51.166;10.322;2024-01-27T06:17:01;99089.34;;;1.47;84.70
26865;BME280;40618;51.166;10.322;2024-01-27T06:19:29;99094.50;;;1.48;85.22
26865;BME280;40618;51.166;10.322;2024-01-27T06:21:55;99092.88;;;1.50;84.66
26865;BME280;40618;51.166;10.322;2024-01-27T06:24:20;99087.69;;;1.49;84.34
26865;BME280;40618;51.166;10.322;2024-01-27T06:26:46;99090.25;;;1.49;84.96
26865;BME280;40618;51.166;10.322;2024-01-27T06:29:11;99097.13;;;1.51;84.84
26865;BME280;40618;51.166;10.322;2024-01-27T06:31:37;99100.69;;;1.55;84.53
26865;BME280;40618;51.166;10.322;2024-01-27T06:34:02;99100.75;;;1.58;85.11
26865;BME280;40618;51.166;10.322;2024-01-27T06:36:28;99100.84;;;1.61;85.04
26865;BME280;40618;51.166;10.322;2024-01-27T06:38:54;99103.38;;;1.60;84.69
26865;BME280;40618;51.166;10.322;2024-01-27T06:41:20;99105.88;;;1.58;84.88
26865;BME280;40618;51.166;10.322;2024-01-27T06:43:45;99113.53;;;1.58;84.69
26865;BME280;40618;51.166;10.322;2024-01-27T06:46:11;99105.00;;;1.58;85.40
26865;BME280;40618;51.166;10.322;2024-01-27T06:48:36;99110.22;;;1.61;85.40
26865;BME280;40618;51.166;10.322;2024-01-27T06:51:03;99100.84;;;1.61;84.66
26865;BME280;40618;51.166;10.322;2024-01-27T06:53:29;99108.38;;;1.57;84.52
26865;BME280;40618;51.166;10.322;2024-01-27T06:55:55;99108.28;;;1.54;84.89
26865;BME280;40618;51.166;10.322;2024-01-27T06:58:20;99108.97;;;1.48;84.71
26865;BME280;40618;51.166;10.322;2024-01-27T07:00:46;99109.72;;;1.45;84.57
26865;BME280;40618;51.166;10.322;2024-01-27T07:03:12;99118.25;;;1.46;84.50
26865;BME280;40618;51.166;10.322;2024-01-27T07:05:37;99109.72;;;1.45;85.27
26865;BME280;40618;51.166;10.322;2024-01-27T07:08:08;99109.72;;;1.45;84.67
26865;BME280;40618;51.166;10.322;2024-01-27T07:10:35;99118.19;;;1.44;85.37
26865;BME280;40618;51.166;10.322;2024-01-27T07:13:01;99123.97;;;1.39;84.87
26865;BME280;40618;51.166;10.322;2024-01-27T07:15:27;99129.94;;;1.39;85.10
26865;BME280;40618;51.166;10.322;2024-01-27T07:17:53;99132.47;;;1.39;84.61
26865;BME280;40618;51.166;10.322;2024-01-27T07:20:20;99142.72;;;1.41;85.01
26865;BME280;40618;51.166;10.322;2024-01-27T07:22:47;99144.56;;;1.45;85.15
26865;BME280;40618;51.166;10.322;2024-01-27T07:25:13;99149.69;;;1.45;85.08
26865;BME280;40618;51.166;10.322;2024-01-27T07:27:39;99147.09;;;1.43;84.96
26865;BME280;40618;51.166;10.322;2024-01-27T07:30:05;99147.03;;;1.42;84.98
26865;BME280;40618;51.166;10.322;2024-01-27T07:32:34;99146.22;;;1.43;84.75
26865;BME280;40618;51.166;10.322;2024-01-27T07:35:00;99142.81;;;1.42;85.12
26865;BME280;40618;51.166;10.322;2024-01-27T07:37:26;99147.03;;;1.42;85.17
26865;BME280;40618;51.166;10.322;2024-01-27T07:39:52;99153.94;;;1.44;85.17
26865;BME280;40618;51.166;10.322;2024-01-27T07:42:18;99148.81;;;1.44;85.29
26865;BME280;40618;51.166;10.322;2024-01-27T07:44:43;99154.75;;;1.43;85.44
26865;BME280;40618;51.166;10.322;2024-01-27T07:47:09;99158.19;;;1.44;85.07
26865;BME280;40618;51.166;10.322;2024-01-27T07:49:35;99164.16;;;1.44;85.03
26865;BME280;40618;51.166;10.322;2024-01-27T07:52:00;99171.00;;;1.45;85.59
26865;BME280;40618;51.166;10.322;2024-01-27T07:54:26;99169.28;;;1.46;85.51
26865;BME280;40618;51.166;10.322;2024-01-27T07:56:52;99165.13;;;1.48;85.44
26865;BME280;40618;51.166;10.322;2024-01-27T07:59:18;99172.78;;;1.48;84.82
26865;BME280;40618;51.166;10.322;2024-01-27T08:01:44;99176.16;;;1.47;85.66
26865;BME280;40618;51.166;10.322;2024-01-27T08:04:09;99171.84;;;1.46;85.40
26865;BME280;40618;51.166;10.322;2024-01-27T08:06:49;99172.56;;;1.42;85.00
26865;BME280;40618;51.166;10.322;2024-01-27T08:09:16;99174.97;;;1.37;85.28
26865;BME280;40618;51.166;10.322;2024-01-27T08:11:42;99187.56;;;1.32;85.41
26865;BME280;40618;51.166;10.322;2024-01-27T08:14:08;99185.00;;;1.32;84.74
26865;BME280;40618;51.166;10.322;2024-01-27T08:16:34;99188.41;;;1.31;84.63
26865;BME280;40618;51.166;10.322;2024-01-27T08:19:00;99189.25;;;1.32;84.76
26865;BME280;40618;51.166;10.322;2024-01-27T08:21:26;99196.84;;;1.30;85.04
26865;BME280;40618;51.166;10.322;2024-01-27T08:23:53;99196.03;;;1.31;85.24
26865;BME280;40618;51.166;10.322;2024-01-27T08:26:20;99200.41;;;1.34;85.07
26865;BME280;40618;51.166;10.322;2024-01-27T08:28:46;99200.41;;;1.34;85.29
26865;BME280;40618;51.166;10.322;2024-01-27T08:31:12;99213.97;;;1.33;85.37
26865;BME280;40618;51.166;10.322;2024-01-27T08:33:38;99213.97;;;1.33;85.08
26865;BME280;40618;51.166;10.322;2024-01-27T08:36:04;99216.50;;;1.33;84.87
26865;BME280;40618;51.166;10.322;2024-01-27T08:38:29;99212.22;;;1.32;85.72
26865;BME280;40618;51.166;10.322;2024-01-27T08:40:55;99201.97;;;1.30;85.71
26865;BME280;40618;51.166;10.322;2024-01-27T08:43:21;99207.97;;;1.32;85.63
26865;BME280;40618;51.166;10.322;2024-01-27T08:45:46;99210.53;;;1.32;85.76
26865;BME280;40618;51.166;10.322;2024-01-27T08:48:12;99196.09;;;1.33;85.22
26865;BME280;40618;51.166;10.322;2024-01-27T08:50:38;99201.25;;;1.34;85.51
26865;BME280;40618;51.166;10.322;2024-01-27T08:53:04;99204.78;;;1.38;85.84
26865;BME280;40618;51.166;10.322;2024-01-27T08:55:30;99202.34;;;1.41;85.26
26865;BME280;40618;51.166;10.322;2024-01-27T08:57:56;99191.41;;;1.45;85.15
26865;BME280;40618;51.166;10.322;2024-01-27T09:00:22;99194.88;;;1.47;86.08
26865;BME280;40618;51.166;10.322;2024-01-27T09:02:48;99199.22;;;1.50;85.56
26865;BME280;40618;51.166;10.322;2024-01-27T09:05:14;99203.63;;;1.54;85.57
26865;BME280;40618;51.166;10.322;2024-01-27T09:07:40;99193.44;;;1.56;85.48
26865;BME280;40618;51.166;10.322;2024-01-27T09:10:06;99202.00;;;1.56;86.12
26865;BME280;40618;51.166;10.322;2024-01-27T09:12:32;99193.50;;;1.57;85.94
26865;BME280;40618;51.166;10.322;2024-01-27T09:14:58;99202.94;;;1.60;85.19
26865;BME280;40618;51.166;10.322;2024-01-27T09:17:23;99208.94;;;1.60;85.63
26865;BME280;40618;51.166;10.322;2024-01-27T09:19:49;99210.72;;;1.63;85.59
26865;BME280;40618;51.166;10.322;2024-01-27T09:22:16;99208.22;;;1.64;85.78
26865;BME280;40618;51.166;10.322;2024-01-27T09:24:41;99200.63;;;1.66;85.24
26865;BME280;40618;51.166;10.322;2024-01-27T09:27:07;99204.97;;;1.68;85.87
26865;BME280;40618;51.166;10.322;2024-01-27T09:29:33;99208.38;;;1.69;85.83
26865;BME280;40618;51.166;10.322;2024-01-27T09:31:58;99210.16;;;1.72;85.49
26865;BME280;40618;51.166;10.322;2024-01-27T09:34:24;99208.53;;;1.74;85.40
26865;BME280;40618;51.166;10.322;2024-01-27T09:36:49;99202.63;;;1.76;85.92
26865;BME280;40618;51.166;10.322;2024-01-27T09:39:15;99201.03;;;1.78;86.14
26865;BME280;40618;51.166;10.322;2024-01-27T09:41:40;99212.13;;;1.80;86.26
26865;BME280;40618;51.166;10.322;2024-01-27T09:44:07;99211.38;;;1.83;85.52
26865;BME280;40618;51.166;10.322;2024-01-27T09:46:33;99208.94;;;1.86;86.14
26865;BME280;40618;51.166;10.322;2024-01-27T09:48:59;99209.91;;;1.90;85.35
26865;BME280;40618;51.166;10.322;2024-01-27T09:51:25;99203.16;;;1.92;85.63
26865;BME280;40618;51.166;10.322;2024-01-27T09:53:52;99208.38;;;1.95;85.97
26865;BME280;40618;51.166;10.322;2024-01-27T09:56:18;99198.25;;;1.98;85.78
26865;BME280;40618;51.166;10.322;2024-01-27T09:58:45;99202.59;;;2.00;86.06
26865;BME280;40618;51.166;10.322;2024-01-27T10:01:11;99211.28;;;2.06;86.13
26865;BME280;40618;51.166;10.322;2024-01-27T10:03:41;99207.06;;;2.08;86.05
26865;BME280;40618;51.166;10.322;2024-01-27T10:06:09;99207.13;;;2.09;85.88
26865;BME280;40618;51.166;10.322;2024-01-27T10:08:35;99217.41;;;2.11;86.11
26865;BME280;40618;51.166;10.322;2024-01-27T10:11:07;99215.78;;;2.14;86.21
26865;BME280;40618;51.166;10.322;2024-01-27T10:13:35;99209.06;;;2.16;85.31
26865;BME280;40618;51.166;10.322;2024-01-27T10:16:08;99215.13;;;2.20;86.17
26865;BME280;40618;51.166;10.322;2024-01-27T10:18:36;99220.41;;;2.25;86.00
26865;BME280;40618;51.166;10.322;2024-01-27T10:21:15;99225.56;;;2.26;85.87
26865;BME280;40618;51.166;10.322;2024-01-27T10:23:41;99212.81;;;2.28;85.85
26865;BME280;40618;51.166;10.322;2024-01-27T10:26:11;99218.00;;;2.31;85.50
26865;BME280;40618;51.166;10.322;2024-01-27T10:28:37;99216.44;;;2.34;86.15
26865;BME280;40618;51.166;10.322;2024-01-27T10:31:12;99216.53;;;2.37;85.47
26865;BME280;40618;51.166;10.322;2024-01-27T10:33:38;99214.97;;;2.43;85.96
26865;BME280;40618;51.166;10.322;2024-01-27T10:36:05;99214.34;;;2.50;85.55
26865;BME280;40618;51.166;10.322;2024-01-27T10:38:38;99214.47;;;2.53;85.22
26865;BME280;40618;51.166;10.322;2024-01-27T10:41:08;99208.53;;;2.56;85.34
26865;BME280;40618;51.166;10.322;2024-01-27T10:43:38;99196.72;;;2.59;85.79
26865;BME280;40618;51.166;10.322;2024-01-27T10:46:06;99201.09;;;2.63;85.81
26865;BME280;40618;51.166;10.322;2024-01-27T10:48:36;99202.88;;;2.66;85.23
26865;BME280;40618;51.166;10.322;2024-01-27T10:51:07;99200.41;;;2.69;85.87
26865;BME280;40618;51.166;10.322;2024-01-27T10:53:35;99197.09;;;2.71;85.25
26865;BME280;40618;51.166;10.322;2024-01-27T10:56:05;99195.50;;;2.75;85.56
26865;BME280;40618;51.166;10.322;2024-01-27T10:58:34;99203.22;;;2.77;85.44
26865;BME280;40618;51.166;10.322;2024-01-27T11:01:08;99199.91;;;2.81;85.83
26865;BME280;40618;51.166;10.322;2024-01-27T11:03:38;99205.16;;;2.85;85.55
26865;BME280;40618;51.166;10.322;2024-01-27T11:06:05;99206.13;;;2.89;85.77
26865;BME280;40618;51.166;10.322;2024-01-27T11:08:33;99195.22;;;2.96;85.29
26865;BME280;40618;51.166;10.322;2024-01-27T11:11:00;99196.16;;;2.98;85.48
26865;BME280;40618;51.166;10.322;2024-01-27T11:13:28;99196.22;;;3.01;85.14
26865;BME280;40618;51.166;10.322;2024-01-27T11:15:56;99192.03;;;3.03;85.49
26865;BME280;40618;51.166;10.322;2024-01-27T11:18:24;99195.50;;;3.05;85.53
26865;BME280;40618;51.166;10.322;2024-01-27T11:20:54;99198.09;;;3.07;85.26
26865;BME280;40618;51.166;10.322;2024-01-27T11:23:20;99196.50;;;3.11;85.16
26865;BME280;40618;51.166;10.322;2024-01-27T11:25:46;99199.91;;;3.11;85.22
26865;BME280;40618;51.166;10.322;2024-01-27T11:28:15;99196.53;;;3.12;85.26
26865;BME280;40618;51.166;10.322;2024-01-27T11:30:51;99194.13;;;3.18;85.03
26865;BME280;40618;51.166;10.322;2024-01-27T11:33:19;99196.09;;;3.27;85.04
26865;BME280;40618;51.166;10.322;2024-01-27T11:35:44;99202.09;;;3.29;85.02
26865;BME280;40618;51.166;10.322;2024-01-27T11:38:10;99196.94;;;3.28;85.09
26865;BME280;40618;51.166;10.322;2024-01-27T11:40:48;99198.72;;;3.30;84.65
26865;BME280;40618;51.166;10.322;2024-01-27T11:43:14;99197.91;;;3.31;84.71
26865;BME280;40618;51.166;10.322;2024-01-27T11:45:41;99203.09;;;3.34;85.02
26865;BME280;40618;51.166;10.322;2024-01-27T11:48:07;99207.47;;;3.38;84.97
26865;BME280;40618;51.166;10.322;2024-01-27T11:50:32;99202.53;;;3.45;85.05
26865;BME280;40618;51.166;10.322;2024-01-27T11:52:58;99201.00;;;3.51;84.82
26865;BME280;40618;51.166;10.322;2024-01-27T11:55:23;99205.41;;;3.57;84.52
26865;BME280;40618;51.166;10.322;2024-01-27T11:57:49;99198.56;;;3.56;84.45
26865;BME280;40618;51.166;10.322;2024-01-27T12:00:15;99189.31;;;3.61;84.76
26865;BME280;40618;51.166;10.322;2024-01-27T12:02:40;99194.47;;;3.63;84.53
26865;BME280;40618;51.166;10.322;2024-01-27T12:05:08;99201.41;;;3.67;84.53
26865;BME280;40618;51.166;10.322;2024-01-27T12:07:34;99186.88;;;3.67;84.63
26865;BME280;40618;51.166;10.322;2024-01-27T12:10:00;99191.19;;;3.68;84.52
26865;BME280;40618;51.166;10.322;2024-01-27T12:12:25;99202.25;;;3.67;84.37
26865;BME280;40618;51.166;10.322;2024-01-27T12:14:51;99193.75;;;3.68;84.23
26865;BME280;40618;51.166;10.322;2024-01-27T12:17:18;99196.38;;;3.71;84.47
26865;BME280;40618;51.166;10.322;2024-01-27T12:19:52;99185.25;;;3.69;84.15
26865;BME280;40618;51.166;10.322;2024-01-27T12:22:28;99187.06;;;3.73;84.37
26865;BME280;40618;51.166;10.322;2024-01-27T12:24:55;99188.03;;;3.79;84.18
26865;BME280;40618;51.166;10.322;2024-01-27T12:27:32;99174.41;;;3.81;84.42
26865;BME280;40618;51.166;10.322;2024-01-27T12:30:00;99183.16;;;3.89;84.09
26865;BME280;40618;51.166;10.322;2024-01-27T12:32:26;99182.47;;;3.95;84.33
26865;BME280;40618;51.166;10.322;2024-01-27T12:34:52;99184.22;;;3.98;84.26
26865;BME280;40618;51.166;10.322;2024-01-27T12:37:21;99189.44;;;4.01;84.27
26865;BME280;40618;51.166;10.322;2024-01-27T12:39:47;99193.72;;;4.02;83.94
26865;BME280;40618;51.166;10.322;2024-01-27T12:42:16;99189.53;;;4.05;83.77
26865;BME280;40618;51.166;10.322;2024-01-27T12:44:42;99184.41;;;4.05;83.59
26865;BME280;40618;51.166;10.322;2024-01-27T12:47:11;99191.28;;;4.08;83.95
26865;BME280;40618;51.166;10.322;2024-01-27T12:49:39;99195.59;;;4.09;83.40
26865;BME280;40618;51.166;10.322;2024-01-27T12:52:06;99201.59;;;4.10;83.56
26865;BME280;40618;51.166;10.322;2024-01-27T12:54:32;99191.31;;;4.10;83.39
26865;BME280;40618;51.166;10.322;2024-01-27T12:56:58;99188.75;;;4.10;83.43